»·PEaware :: WAT436 KOXR-KONT

WAT436 :: KOXR-KONT

FLIGHT INFORMATION

Flight Status: Arrived
Operator:
Walker Air Transport
More flights by this operator :: More flights under this callsign
Pilot: Dante R. (31808)
Aircraft: CESSNA 172 SKYHAWK
(C172)
More flights by this aircraft type
Origin: KOXR Oxnard
United States
Destination: KONT Ontario Intl
United States
More flights between these airports :: More routes between these airports
Route:
File this flight plan on PilotEdge
Remarks:
Altitude:
(Current/Filed)
5,500ft
Speed:
(Current/Filed)
0kts
Departed: 05-Jan-21 07:56 PM
Arrived: 05-Jan-21 08:54 PM
Distance/Time
Traveled:
80nm/0:57
Distance/Time
To Go:
Arrived

Flight Plot

Page will automatically refresh every two minutes.


Map Options




Map Legend


Flown Route
Filed Route
Departure Airport
Arrival Airport
Navaid (VOR, NDB)
Fix

Horizontal Profiles

Position Reports

Time Latitude Longitude Heading Altitude Ground
Speed
05-Jan-21 19:42 34.198999 -119.197767 269 41ft 0kts
05-Jan-21 19:43 34.198999 -119.197767 269 41ft 0kts
05-Jan-21 19:44 34.198999 -119.197769 269 41ft 0kts
05-Jan-21 19:45 34.199682 -119.197463 337 41ft 0kts
05-Jan-21 19:46 34.199681 -119.197463 337 41ft 0kts
05-Jan-21 19:47 34.199681 -119.197463 337 41ft 0kts
05-Jan-21 19:48 34.199681 -119.197463 337 41ft 0kts
05-Jan-21 19:49 34.199681 -119.197463 337 41ft 0kts
05-Jan-21 19:50 34.199920 -119.197536 1 41ft 0kts
05-Jan-21 19:51 34.199920 -119.197536 1 41ft 0kts
05-Jan-21 19:52 34.199920 -119.197536 1 41ft 0kts
05-Jan-21 19:53 34.199970 -119.197535 0 41ft 1kts
05-Jan-21 19:54 34.200736 -119.198819 269 41ft 36kts
05-Jan-21 19:55 34.200999 -119.224191 264 486ft 83kts
05-Jan-21 19:56 34.192480 -119.252231 205 1032ft 95kts
05-Jan-21 19:57 34.167176 -119.249119 170 1682ft 91kts
05-Jan-21 19:58 34.155814 -119.225808 86 2169ft 96kts
05-Jan-21 19:59 34.155778 -119.194713 80 2797ft 87kts
05-Jan-21 20:00 34.156896 -119.163048 65 3285ft 96kts
05-Jan-21 20:01 34.172291 -119.139720 47 3987ft 87kts
05-Jan-21 20:02 34.187381 -119.117782 74 4631ft 89kts
05-Jan-21 20:03 34.189598 -119.086114 80 5223ft 95kts
05-Jan-21 20:04 34.188111 -119.049957 92 5449ft 118kts
05-Jan-21 20:05 34.183193 -119.011688 97 5479ft 114kts
05-Jan-21 20:06 34.177555 -118.975942 97 5468ft 106kts
05-Jan-21 20:07 34.173158 -118.940867 97 5433ft 105kts
05-Jan-21 20:08 34.170483 -118.905864 92 5416ft 104kts
05-Jan-21 20:09 34.165849 -118.871055 91 5423ft 104kts
05-Jan-21 20:10 34.166622 -118.836486 89 5435ft 104kts
05-Jan-21 20:11 34.165965 -118.801725 86 5456ft 103kts
05-Jan-21 20:12 34.165864 -118.767076 91 5478ft 103kts
05-Jan-21 20:13 34.165766 -118.732691 83 5509ft 101kts
05-Jan-21 20:14 34.164687 -118.698151 93 5529ft 102kts
05-Jan-21 20:15 34.160829 -118.663819 94 5559ft 102kts
05-Jan-21 20:16 34.158601 -118.629400 89 5578ft 102kts
05-Jan-21 20:17 34.158121 -118.595093 90 5604ft 102kts
05-Jan-21 20:18 34.157276 -118.560629 86 5629ft 102kts
05-Jan-21 20:19 34.158542 -118.525372 84 5547ft 110kts
05-Jan-21 20:20 34.158530 -118.488963 89 5540ft 107kts
05-Jan-21 20:21 34.156567 -118.453183 92 5448ft 105kts
05-Jan-21 20:22 34.148576 -118.418850 103 5402ft 104kts
05-Jan-21 20:23 34.145162 -118.384781 88 5402ft 99kts
05-Jan-21 20:24 34.143109 -118.351719 101 5420ft 101kts
05-Jan-21 20:25 34.137993 -118.319146 96 5495ft 98kts
05-Jan-21 20:26 34.133878 -118.286362 96 5512ft 98kts
05-Jan-21 20:27 34.130309 -118.253689 93 5572ft 92kts
05-Jan-21 20:28 34.126533 -118.221532 95 5587ft 95kts
05-Jan-21 20:29 34.122316 -118.189693 96 5602ft 99kts
05-Jan-21 20:30 34.121475 -118.156545 90 5593ft 100kts
05-Jan-21 20:31 34.119796 -118.122785 91 5576ft 102kts
05-Jan-21 20:32 34.117736 -118.088665 94 5581ft 100kts
05-Jan-21 20:33 34.115418 -118.055464 89 5612ft 97kts
05-Jan-21 20:34 34.113256 -118.021760 89 5580ft 99kts
05-Jan-21 20:35 34.112585 -117.988290 86 5562ft 99kts
05-Jan-21 20:36 34.110441 -117.954700 96 5544ft 101kts
05-Jan-21 20:37 34.105646 -117.921550 100 5398ft 98kts
05-Jan-21 20:38 34.100944 -117.889089 93 4845ft 95kts
05-Jan-21 20:39 34.098940 -117.857172 87 4339ft 94kts
05-Jan-21 20:40 34.098451 -117.825446 87 3869ft 94kts
05-Jan-21 20:41 34.097637 -117.794095 88 3511ft 90kts
05-Jan-21 20:42 34.096821 -117.764347 90 3625ft 88kts
05-Jan-21 20:43 34.094301 -117.733654 94 3587ft 92kts
05-Jan-21 20:44 34.090601 -117.703512 98 3311ft 89kts
05-Jan-21 20:45 34.089286 -117.673928 92 2907ft 83kts
05-Jan-21 20:46 34.088628 -117.644459 88 2709ft 88kts
05-Jan-21 20:47 34.088865 -117.614996 86 2710ft 87kts
05-Jan-21 20:48 34.088849 -117.585463 91 2544ft 84kts
05-Jan-21 20:49 34.086950 -117.555864 95 2170ft 88kts
05-Jan-21 20:50 34.076021 -117.533458 178 1680ft 81kts
05-Jan-21 20:51 34.059954 -117.546029 247 1559ft 78kts
05-Jan-21 20:52 34.056851 -117.570061 271 1128ft 68kts
05-Jan-21 20:53 34.056870 -117.590013 262 942ft 22kts
05-Jan-21 20:54 34.056885 -117.597239 268 942ft 20kts
05-Jan-21 20:55 34.056096 -117.600117 222 942ft 7kts
05-Jan-21 20:56 34.054008 -117.602688 230 942ft 5kts
05-Jan-21 20:57 34.053048 -117.604037 276 942ft 9kts
05-Jan-21 20:58 34.053216 -117.604656 358 942ft 0kts
05-Jan-21 20:59 34.053216 -117.604656 358 942ft 0kts
05-Jan-21 21:01 34.053216 -117.604656 358 942ft 0kts
05-Jan-21 21:02 34.053216 -117.604656 358 942ft 0kts

Navigation Log

Ident Type
Flight plan parsing failed, navigation log unavailable